sensor_id;sensor_type;location;lat;lon;timestamp;P1;durP1;ratioP1;P2;durP2;ratioP2
70927;SDS011;58587;53.034;18.576;2023-02-28T06:08:37;117.03;;;30.88;;
70927;SDS011;58587;53.034;18.576;2023-02-28T06:11:03;88.53;;;26.93;;
70927;SDS011;58587;53.034;18.576;2023-02-28T06:13:29;71.38;;;21.42;;
70927;SDS011;58587;53.034;18.576;2023-02-28T06:15:54;83.10;;;24.10;;
70927;SDS011;58587;53.034;18.576;2023-02-28T06:18:20;120.27;;;31.13;;
70927;SDS011;58587;53.034;18.576;2023-02-28T06:20:51;108.10;;;30.23;;
70927;SDS011;58587;53.034;18.576;2023-02-28T06:23:19;101.05;;;27.38;;
70927;SDS011;58587;53.034;18.576;2023-02-28T06:25:45;77.83;;;24.63;;
70927;SDS011;58587;53.034;18.576;2023-02-28T06:28:10;63.72;;;21.65;;
70927;SDS011;58587;53.034;18.576;2023-02-28T06:30:36;68.13;;;22.93;;
70927;SDS011;58587;53.034;18.576;2023-02-28T06:33:02;59.53;;;21.40;;
70927;SDS011;58587;53.034;18.576;2023-02-28T06:35:28;54.60;;;21.67;;
70927;SDS011;58587;53.034;18.576;2023-02-28T06:37:53;56.07;;;20.93;;
70927;SDS011;58587;53.034;18.576;2023-02-28T06:40:18;56.87;;;20.80;;
70927;SDS011;58587;53.034;18.576;2023-02-28T06:42:44;49.80;;;20.07;;
70927;SDS011;58587;53.034;18.576;2023-02-28T06:45:10;41.03;;;17.23;;
70927;SDS011;58587;53.034;18.576;2023-02-28T06:47:36;40.55;;;16.85;;
70927;SDS011;58587;53.034;18.576;2023-02-28T06:50:03;45.25;;;18.73;;
70927;SDS011;58587;53.034;18.576;2023-02-28T06:52:29;54.42;;;20.30;;
70927;SDS011;58587;53.034;18.576;2023-02-28T06:54:55;69.47;;;23.63;;
70927;SDS011;58587;53.034;18.576;2023-02-28T06:57:25;73.18;;;23.17;;
70927;SDS011;58587;53.034;18.576;2023-02-28T06:59:52;47.83;;;18.07;;
70927;SDS011;58587;53.034;18.576;2023-02-28T07:02:18;40.28;;;18.02;;
70927;SDS011;58587;53.034;18.576;2023-02-28T07:04:43;38.33;;;17.90;;
70927;SDS011;58587;53.034;18.576;2023-02-28T07:07:09;47.63;;;21.47;;
70927;SDS011;58587;53.034;18.576;2023-02-28T07:09:35;45.90;;;17.92;;
70927;SDS011;58587;53.034;18.576;2023-02-28T07:12:00;50.10;;;16.90;;
70927;SDS011;58587;53.034;18.576;2023-02-28T07:14:25;40.77;;;16.17;;
70927;SDS011;58587;53.034;18.576;2023-02-28T07:16:51;43.77;;;16.50;;
70927;SDS011;58587;53.034;18.576;2023-02-28T07:19:16;40.63;;;16.07;;
70927;SDS011;58587;53.034;18.576;2023-02-28T07:21:42;45.03;;;15.82;;
70927;SDS011;58587;53.034;18.576;2023-02-28T07:24:07;39.73;;;16.23;;
70927;SDS011;58587;53.034;18.576;2023-02-28T07:26:33;41.23;;;16.87;;
70927;SDS011;58587;53.034;18.576;2023-02-28T07:28:59;41.72;;;16.27;;
70927;SDS011;58587;53.034;18.576;2023-02-28T07:31:24;50.73;;;18.30;;
70927;SDS011;58587;53.034;18.576;2023-02-28T07:33:49;47.83;;;19.10;;
70927;SDS011;58587;53.034;18.576;2023-02-28T07:36:16;50.10;;;18.17;;
70927;SDS011;58587;53.034;18.576;2023-02-28T07:38:44;43.55;;;17.35;;
70927;SDS011;58587;53.034;18.576;2023-02-28T07:41:13;50.45;;;18.40;;
70927;SDS011;58587;53.034;18.576;2023-02-28T07:43:39;51.10;;;18.38;;
70927;SDS011;58587;53.034;18.576;2023-02-28T07:46:05;45.93;;;18.53;;
70927;SDS011;58587;53.034;18.576;2023-02-28T07:48:32;45.97;;;17.38;;
70927;SDS011;58587;53.034;18.576;2023-02-28T07:50:58;44.83;;;17.53;;
70927;SDS011;58587;53.034;18.576;2023-02-28T07:53:24;43.20;;;17.98;;
70927;SDS011;58587;53.034;18.576;2023-02-28T07:55:50;52.63;;;19.87;;
70927;SDS011;58587;53.034;18.576;2023-02-28T07:58:15;47.85;;;19.48;;
70927;SDS011;58587;53.034;18.576;2023-02-28T08:00:41;51.90;;;18.50;;
70927;SDS011;58587;53.034;18.576;2023-02-28T08:03:07;45.63;;;17.02;;
70927;SDS011;58587;53.034;18.576;2023-02-28T08:05:39;43.43;;;16.90;;
70927;SDS011;58587;53.034;18.576;2023-02-28T08:08:05;39.95;;;16.13;;
70927;SDS011;58587;53.034;18.576;2023-02-28T08:10:31;42.78;;;16.67;;
70927;SDS011;58587;53.034;18.576;2023-02-28T08:12:57;53.50;;;18.07;;
70927;SDS011;58587;53.034;18.576;2023-02-28T08:15:22;54.63;;;19.48;;
70927;SDS011;58587;53.034;18.576;2023-02-28T08:17:48;45.50;;;17.10;;
70927;SDS011;58587;53.034;18.576;2023-02-28T08:20:13;43.67;;;16.93;;
70927;SDS011;58587;53.034;18.576;2023-02-28T08:22:38;48.33;;;18.77;;
70927;SDS011;58587;53.034;18.576;2023-02-28T08:25:04;46.60;;;20.10;;
70927;SDS011;58587;53.034;18.576;2023-02-28T08:27:32;49.38;;;19.45;;
70927;SDS011;58587;53.034;18.576;2023-02-28T08:29:57;48.90;;;18.80;;
70927;SDS011;58587;53.034;18.576;2023-02-28T08:32:22;54.93;;;20.60;;
70927;SDS011;58587;53.034;18.576;2023-02-28T08:34:47;70.33;;;24.00;;
70927;SDS011;58587;53.034;18.576;2023-02-28T08:37:13;48.10;;;18.90;;
70927;SDS011;58587;53.034;18.576;2023-02-28T08:39:38;44.60;;;18.43;;
70927;SDS011;58587;53.034;18.576;2023-02-28T08:42:04;42.70;;;16.98;;
70927;SDS011;58587;53.034;18.576;2023-02-28T08:44:29;30.67;;;12.53;;
70927;SDS011;58587;53.034;18.576;2023-02-28T08:46:55;31.53;;;12.93;;
70927;SDS011;58587;53.034;18.576;2023-02-28T08:49:20;37.70;;;14.87;;
70927;SDS011;58587;53.034;18.576;2023-02-28T08:51:45;25.13;;;11.63;;
70927;SDS011;58587;53.034;18.576;2023-02-28T08:54:10;22.27;;;10.33;;
70927;SDS011;58587;53.034;18.576;2023-02-28T08:56:41;33.05;;;12.50;;
70927;SDS011;58587;53.034;18.576;2023-02-28T08:59:08;27.73;;;11.00;;
70927;SDS011;58587;53.034;18.576;2023-02-28T09:01:34;28.30;;;11.18;;
70927;SDS011;58587;53.034;18.576;2023-02-28T09:04:01;28.40;;;11.75;;
70927;SDS011;58587;53.034;18.576;2023-02-28T09:06:27;27.65;;;11.95;;
70927;SDS011;58587;53.034;18.576;2023-02-28T09:08:55;35.50;;;15.00;;
70927;SDS011;58587;53.034;18.576;2023-02-28T09:11:23;24.63;;;9.90;;
70927;SDS011;58587;53.034;18.576;2023-02-28T09:13:48;23.48;;;9.73;;
70927;SDS011;58587;53.034;18.576;2023-02-28T09:16:14;20.00;;;9.10;;
70927;SDS011;58587;53.034;18.576;2023-02-28T09:18:41;22.70;;;9.43;;
70927;SDS011;58587;53.034;18.576;2023-02-28T09:21:08;20.33;;;9.07;;
70927;SDS011;58587;53.034;18.576;2023-02-28T09:23:36;19.10;;;7.93;;
70927;SDS011;58587;53.034;18.576;2023-02-28T09:26:03;16.63;;;7.00;;
70927;SDS011;58587;53.034;18.576;2023-02-28T09:28:29;18.58;;;8.48;;
70927;SDS011;58587;53.034;18.576;2023-02-28T09:30:54;17.07;;;7.63;;
70927;SDS011;58587;53.034;18.576;2023-02-28T09:33:20;17.17;;;6.83;;
70927;SDS011;58587;53.034;18.576;2023-02-28T09:35:47;19.08;;;6.97;;
70927;SDS011;58587;53.034;18.576;2023-02-28T09:38:13;21.67;;;8.80;;
70927;SDS011;58587;53.034;18.576;2023-02-28T09:40:40;23.83;;;9.87;;
70927;SDS011;58587;53.034;18.576;2023-02-28T09:43:20;18.77;;;7.85;;
70927;SDS011;58587;53.034;18.576;2023-02-28T09:45:50;26.73;;;10.45;;
70927;SDS011;58587;53.034;18.576;2023-02-28T09:48:27;23.00;;;9.05;;
70927;SDS011;58587;53.034;18.576;2023-02-28T09:51:05;10.23;;;3.93;;
70927;SDS011;58587;53.034;18.576;2023-02-28T09:53:37;36.70;;;9.20;;
70927;SDS011;58587;53.034;18.576;2023-02-28T09:58:44;29.10;;;16.10;;
70927;SDS011;58587;53.034;18.576;2023-02-28T10:06:46;20.65;;;7.50;;
70927;SDS011;58587;53.034;18.576;2023-02-28T10:09:18;17.83;;;8.60;;
70927;SDS011;58587;53.034;18.576;2023-02-28T10:11:48;22.98;;;11.48;;
70927;SDS011;58587;53.034;18.576;2023-02-28T10:14:21;18.95;;;8.57;;
70927;SDS011;58587;53.034;18.576;2023-02-28T10:16:52;16.73;;;6.93;;
70927;SDS011;58587;53.034;18.576;2023-02-28T10:22:03;18.88;;;8.50;;
70927;SDS011;58587;53.034;18.576;2023-02-28T10:24:35;17.48;;;6.43;;
70927;SDS011;58587;53.034;18.576;2023-02-28T10:27:17;23.23;;;11.93;;
70927;SDS011;58587;53.034;18.576;2023-02-28T10:29:52;17.37;;;6.83;;
70927;SDS011;58587;53.034;18.576;2023-02-28T10:32:20;11.65;;;5.10;;
70927;SDS011;58587;53.034;18.576;2023-02-28T10:35:33;11.98;;;4.93;;
70927;SDS011;58587;53.034;18.576;2023-02-28T10:37:37;14.05;;;5.40;;
70927;SDS011;58587;53.034;18.576;2023-02-28T10:40:04;15.68;;;5.60;;
70927;SDS011;58587;53.034;18.576;2023-02-28T10:42:30;11.07;;;4.23;;
70927;SDS011;58587;53.034;18.576;2023-02-28T10:45:10;10.00;;;4.65;;
70927;SDS011;58587;53.034;18.576;2023-02-28T10:48:02;13.90;;;5.82;;
70927;SDS011;58587;53.034;18.576;2023-02-28T10:55:41;12.20;;;4.70;;
70927;SDS011;58587;53.034;18.576;2023-02-28T10:58:22;20.80;;;10.67;;
70927;SDS011;58587;53.034;18.576;2023-02-28T11:00:50;13.30;;;5.35;;
70927;SDS011;58587;53.034;18.576;2023-02-28T11:03:33;9.50;;;3.50;;
70927;SDS011;58587;53.034;18.576;2023-02-28T11:06:16;10.93;;;5.63;;
70927;SDS011;58587;53.034;18.576;2023-02-28T11:08:54;8.10;;;3.55;;
70927;SDS011;58587;53.034;18.576;2023-02-28T11:11:24;13.23;;;5.70;;
70927;SDS011;58587;53.034;18.576;2023-02-28T11:13:52;8.25;;;3.60;;
70927;SDS011;58587;53.034;18.576;2023-02-28T11:16:19;87.00;;;44.67;;
70927;SDS011;58587;53.034;18.576;2023-02-28T11:21:16;14.68;;;5.70;;
70927;SDS011;58587;53.034;18.576;2023-02-28T11:23:45;8.43;;;3.72;;
70927;SDS011;58587;53.034;18.576;2023-02-28T11:26:12;16.30;;;6.30;;
70927;SDS011;58587;53.034;18.576;2023-02-28T11:29:11;10.17;;;4.30;;
70927;SDS011;58587;53.034;18.576;2023-02-28T11:34:46;11.93;;;4.32;;
70927;SDS011;58587;53.034;18.576;2023-02-28T11:37:24;10.65;;;4.07;;
70927;SDS011;58587;53.034;18.576;2023-02-28T11:39:50;41.13;;;23.13;;
70927;SDS011;58587;53.034;18.576;2023-02-28T11:44:54;11.88;;;5.65;;
70927;SDS011;58587;53.034;18.576;2023-02-28T11:53:00;12.05;;;5.45;;
70927;SDS011;58587;53.034;18.576;2023-02-28T11:55:37;15.70;;;6.60;;
70927;SDS011;58587;53.034;18.576;2023-02-28T12:08:53;15.23;;;6.50;;
70927;SDS011;58587;53.034;18.576;2023-02-28T12:11:30;13.07;;;6.40;;
70927;SDS011;58587;53.034;18.576;2023-02-28T12:27:26;13.85;;;6.75;;
70927;SDS011;58587;53.034;18.576;2023-02-28T12:30:01;13.15;;;6.65;;
70927;SDS011;58587;53.034;18.576;2023-02-28T12:32:39;39.60;;;22.13;;
70927;SDS011;58587;53.034;18.576;2023-02-28T12:35:14;13.53;;;7.30;;
70927;SDS011;58587;53.034;18.576;2023-02-28T12:37:50;13.90;;;6.78;;
70927;SDS011;58587;53.034;18.576;2023-02-28T12:40:28;32.55;;;24.95;;
70927;SDS011;58587;53.034;18.576;2023-02-28T12:43:06;14.45;;;7.28;;
70927;SDS011;58587;53.034;18.576;2023-02-28T12:45:45;9.75;;;5.20;;
70927;SDS011;58587;53.034;18.576;2023-02-28T12:48:15;13.20;;;6.87;;
70927;SDS011;58587;53.034;18.576;2023-02-28T12:50:45;10.07;;;6.13;;
70927;SDS011;58587;53.034;18.576;2023-02-28T12:58:48;12.10;;;6.30;;
70927;SDS011;58587;53.034;18.576;2023-02-28T13:01:33;10.27;;;6.35;;
70927;SDS011;58587;53.034;18.576;2023-02-28T13:09:54;8.70;;;6.88;;
70927;SDS011;58587;53.034;18.576;2023-02-28T13:12:22;8.80;;;5.57;;
70927;SDS011;58587;53.034;18.576;2023-02-28T13:14:49;8.15;;;5.10;;
70927;SDS011;58587;53.034;18.576;2023-02-28T13:17:19;9.52;;;5.75;;
70927;SDS011;58587;53.034;18.576;2023-02-28T13:19:55;12.20;;;9.38;;
70927;SDS011;58587;53.034;18.576;2023-02-28T13:24:52;7.23;;;4.70;;
70927;SDS011;58587;53.034;18.576;2023-02-28T13:27:32;8.18;;;5.18;;
70927;SDS011;58587;53.034;18.576;2023-02-28T13:36:32;9.05;;;6.80;;
70927;SDS011;58587;53.034;18.576;2023-02-28T13:38:42;64.93;;;23.27;;
70927;SDS011;58587;53.034;18.576;2023-02-28T13:46:28;8.00;;;5.05;;
70927;SDS011;58587;53.034;18.576;2023-02-28T13:48:54;6.47;;;4.30;;
70927;SDS011;58587;53.034;18.576;2023-02-28T13:51:38;6.23;;;4.33;;
70927;SDS011;58587;53.034;18.576;2023-02-28T13:54:16;8.77;;;5.57;;
70927;SDS011;58587;53.034;18.576;2023-02-28T13:59:59;5.97;;;4.27;;
70927;SDS011;58587;53.034;18.576;2023-02-28T14:05:18;8.43;;;6.03;;
70927;SDS011;58587;53.034;18.576;2023-02-28T14:07:50;9.00;;;6.43;;
70927;SDS011;58587;53.034;18.576;2023-02-28T14:18:15;8.37;;;5.40;;
70927;SDS011;58587;53.034;18.576;2023-02-28T14:20:47;8.75;;;4.97;;
70927;SDS011;58587;53.034;18.576;2023-02-28T14:23:21;11.07;;;5.72;;
70927;SDS011;58587;53.034;18.576;2023-02-28T14:31:54;6.80;;;3.77;;
70927;SDS011;58587;53.034;18.576;2023-02-28T14:34:31;6.90;;;4.05;;
70927;SDS011;58587;53.034;18.576;2023-02-28T14:37:05;6.63;;;4.15;;
70927;SDS011;58587;53.034;18.576;2023-02-28T14:39:32;7.85;;;4.15;;
70927;SDS011;58587;53.034;18.576;2023-02-28T14:41:59;8.25;;;4.80;;
70927;SDS011;58587;53.034;18.576;2023-02-28T14:44:29;41.97;;;19.57;;
70927;SDS011;58587;53.034;18.576;2023-02-28T14:46:56;44.00;;;21.02;;
70927;SDS011;58587;53.034;18.576;2023-02-28T14:52:00;27.95;;;13.60;;
70927;SDS011;58587;53.034;18.576;2023-02-28T14:54:51;67.70;;;30.10;;
70927;SDS011;58587;53.034;18.576;2023-02-28T14:57:25;16.75;;;7.75;;
70927;SDS011;58587;53.034;18.576;2023-02-28T14:59:59;20.13;;;10.15;;
70927;SDS011;58587;53.034;18.576;2023-02-28T15:02:35;16.73;;;8.75;;
70927;SDS011;58587;53.034;18.576;2023-02-28T15:05:10;29.70;;;19.70;;
70927;SDS011;58587;53.034;18.576;2023-02-28T15:08:00;35.20;;;17.90;;
70927;SDS011;58587;53.034;18.576;2023-02-28T15:10:31;55.63;;;27.92;;
70927;SDS011;58587;53.034;18.576;2023-02-28T15:15:45;52.25;;;22.05;;
70927;SDS011;58587;53.034;18.576;2023-02-28T15:18:45;17.30;;;7.22;;
70927;SDS011;58587;53.034;18.576;2023-02-28T15:21:19;17.10;;;8.03;;
70927;SDS011;58587;53.034;18.576;2023-02-28T15:23:52;22.17;;;8.88;;
70927;SDS011;58587;53.034;18.576;2023-02-28T15:26:39;13.20;;;6.60;;
70927;SDS011;58587;53.034;18.576;2023-02-28T15:29:13;123.88;;;40.97;;
70927;SDS011;58587;53.034;18.576;2023-02-28T15:31:45;58.92;;;20.52;;
70927;SDS011;58587;53.034;18.576;2023-02-28T15:34:21;37.47;;;14.40;;
70927;SDS011;58587;53.034;18.576;2023-02-28T15:36:48;32.35;;;12.60;;
70927;SDS011;58587;53.034;18.576;2023-02-28T15:39:26;20.40;;;9.20;;
70927;SDS011;58587;53.034;18.576;2023-02-28T15:42:27;15.57;;;7.35;;
70927;SDS011;58587;53.034;18.576;2023-02-28T15:44:45;16.23;;;5.93;;
70927;SDS011;58587;53.034;18.576;2023-02-28T15:47:18;10.68;;;5.00;;
70927;SDS011;58587;53.034;18.576;2023-02-28T15:49:46;12.52;;;4.18;;
70927;SDS011;58587;53.034;18.576;2023-02-28T15:52:26;9.13;;;4.20;;
70927;SDS011;58587;53.034;18.576;2023-02-28T15:54:56;8.40;;;4.15;;
70927;SDS011;58587;53.034;18.576;2023-02-28T15:57:24;10.15;;;4.28;;
70927;SDS011;58587;53.034;18.576;2023-02-28T15:59:54;15.50;;;7.00;;
70927;SDS011;58587;53.034;18.576;2023-02-28T16:02:34;13.38;;;6.50;;
70927;SDS011;58587;53.034;18.576;2023-02-28T16:05:22;10.27;;;4.45;;
70927;SDS011;58587;53.034;18.576;2023-02-28T16:07:53;8.70;;;4.13;;
70927;SDS011;58587;53.034;18.576;2023-02-28T16:10:20;9.32;;;3.85;;
70927;SDS011;58587;53.034;18.576;2023-02-28T16:12:48;12.82;;;4.20;;
70927;SDS011;58587;53.034;18.576;2023-02-28T16:17:46;14.83;;;5.87;;
70927;SDS011;58587;53.034;18.576;2023-02-28T16:20:13;14.32;;;7.00;;
70927;SDS011;58587;53.034;18.576;2023-02-28T16:22:43;11.80;;;6.10;;
70927;SDS011;58587;53.034;18.576;2023-02-28T16:25:16;15.93;;;6.22;;
70927;SDS011;58587;53.034;18.576;2023-02-28T16:27:43;15.57;;;6.57;;
70927;SDS011;58587;53.034;18.576;2023-02-28T16:30:17;19.92;;;8.18;;
70927;SDS011;58587;53.034;18.576;2023-02-28T16:32:47;21.30;;;7.95;;
70927;SDS011;58587;53.034;18.576;2023-02-28T16:35:16;23.33;;;7.65;;
70927;SDS011;58587;53.034;18.576;2023-02-28T16:37:42;23.63;;;10.03;;
70927;SDS011;58587;53.034;18.576;2023-02-28T16:40:29;37.20;;;12.77;;
70927;SDS011;58587;53.034;18.576;2023-02-28T16:42:58;33.55;;;11.45;;
70927;SDS011;58587;53.034;18.576;2023-02-28T16:45:26;22.47;;;8.37;;
70927;SDS011;58587;53.034;18.576;2023-02-28T16:47:55;11.52;;;5.47;;
70927;SDS011;58587;53.034;18.576;2023-02-28T16:50:22;14.23;;;6.38;;
70927;SDS011;58587;53.034;18.576;2023-02-28T16:52:50;13.20;;;6.60;;
70927;SDS011;58587;53.034;18.576;2023-02-28T16:55:19;14.77;;;7.82;;
70927;SDS011;58587;53.034;18.576;2023-02-28T16:57:45;20.93;;;9.43;;
70927;SDS011;58587;53.034;18.576;2023-02-28T17:00:16;22.20;;;10.43;;
70927;SDS011;58587;53.034;18.576;2023-02-28T17:02:41;23.73;;;10.80;;
70927;SDS011;58587;53.034;18.576;2023-02-28T17:05:08;19.58;;;8.93;;
70927;SDS011;58587;53.034;18.576;2023-02-28T17:07:35;16.77;;;7.30;;
70927;SDS011;58587;53.034;18.576;2023-02-28T17:10:00;20.40;;;7.30;;
70927;SDS011;58587;53.034;18.576;2023-02-28T17:12:33;17.10;;;7.03;;
70927;SDS011;58587;53.034;18.576;2023-02-28T17:14:58;16.50;;;6.67;;
70927;SDS011;58587;53.034;18.576;2023-02-28T17:17:24;16.88;;;6.72;;
70927;SDS011;58587;53.034;18.576;2023-02-28T17:19:50;16.30;;;6.37;;
70927;SDS011;58587;53.034;18.576;2023-02-28T17:22:16;13.30;;;5.95;;
70927;SDS011;58587;53.034;18.576;2023-02-28T17:24:41;20.80;;;6.83;;
70927;SDS011;58587;53.034;18.576;2023-02-28T17:27:09;12.53;;;6.00;;
70927;SDS011;58587;53.034;18.576;2023-02-28T17:29:38;21.75;;;8.25;;
70927;SDS011;58587;53.034;18.576;2023-02-28T17:32:03;18.40;;;7.83;;
70927;SDS011;58587;53.034;18.576;2023-02-28T17:34:29;18.90;;;8.43;;
70927;SDS011;58587;53.034;18.576;2023-02-28T17:36:54;20.40;;;7.73;;
70927;SDS011;58587;53.034;18.576;2023-02-28T17:39:19;16.90;;;7.30;;
70927;SDS011;58587;53.034;18.576;2023-02-28T17:41:52;13.85;;;5.80;;
70927;SDS011;58587;53.034;18.576;2023-02-28T17:44:18;14.52;;;5.85;;
70927;SDS011;58587;53.034;18.576;2023-02-28T17:46:44;13.77;;;5.83;;
70927;SDS011;58587;53.034;18.576;2023-02-28T17:49:10;13.77;;;5.90;;
70927;SDS011;58587;53.034;18.576;2023-02-28T17:51:36;15.87;;;6.00;;
70927;SDS011;58587;53.034;18.576;2023-02-28T17:54:01;16.00;;;6.63;;
70927;SDS011;58587;53.034;18.576;2023-02-28T17:56:26;15.10;;;5.40;;
70927;SDS011;58587;53.034;18.576;2023-02-28T17:58:53;15.13;;;5.83;;
70927;SDS011;58587;53.034;18.576;2023-02-28T18:01:20;26.58;;;10.30;;
70927;SDS011;58587;53.034;18.576;2023-02-28T18:03:46;15.63;;;7.57;;
70927;SDS011;58587;53.034;18.576;2023-02-28T18:06:16;23.92;;;8.77;;
70927;SDS011;58587;53.034;18.576;2023-02-28T18:08:45;21.83;;;9.05;;
70927;SDS011;58587;53.034;18.576;2023-02-28T18:11:10;27.50;;;10.33;;
70927;SDS011;58587;53.034;18.576;2023-02-28T18:13:43;23.25;;;9.45;;
70927;SDS011;58587;53.034;18.576;2023-02-28T18:16:09;21.17;;;9.40;;
70927;SDS011;58587;53.034;18.576;2023-02-28T18:18:34;22.60;;;9.20;;
70927;SDS011;58587;53.034;18.576;2023-02-28T18:21:03;19.48;;;8.80;;
70927;SDS011;58587;53.034;18.576;2023-02-28T18:23:30;21.95;;;10.25;;
70927;SDS011;58587;53.034;18.576;2023-02-28T18:25:55;21.30;;;9.77;;
70927;SDS011;58587;53.034;18.576;2023-02-28T18:28:20;21.00;;;10.53;;
70927;SDS011;58587;53.034;18.576;2023-02-28T18:30:46;22.33;;;10.00;;
70927;SDS011;58587;53.034;18.576;2023-02-28T18:33:11;20.10;;;9.57;;
70927;SDS011;58587;53.034;18.576;2023-02-28T18:35:36;20.77;;;9.37;;
70927;SDS011;58587;53.034;18.576;2023-02-28T18:38:04;22.88;;;10.70;;
70927;SDS011;58587;53.034;18.576;2023-02-28T18:40:33;30.35;;;12.93;;
70927;SDS011;58587;53.034;18.576;2023-02-28T18:42:59;28.63;;;13.02;;
70927;SDS011;58587;53.034;18.576;2023-02-28T18:45:25;28.23;;;12.73;;
70927;SDS011;58587;53.034;18.576;2023-02-28T18:47:51;26.42;;;12.93;;
70927;SDS011;58587;53.034;18.576;2023-02-28T18:50:16;23.33;;;11.37;;
70927;SDS011;58587;53.034;18.576;2023-02-28T18:52:42;21.50;;;10.37;;
70927;SDS011;58587;53.034;18.576;2023-02-28T18:55:07;21.93;;;10.77;;
70927;SDS011;58587;53.034;18.576;2023-02-28T18:57:34;25.25;;;10.18;;
70927;SDS011;58587;53.034;18.576;2023-02-28T18:59:59;25.47;;;9.87;;
70927;SDS011;58587;53.034;18.576;2023-02-28T19:02:25;24.30;;;9.20;;
70927;SDS011;58587;53.034;18.576;2023-02-28T19:04:50;24.98;;;10.65;;
70927;SDS011;58587;53.034;18.576;2023-02-28T19:07:16;24.70;;;10.13;;
70927;SDS011;58587;53.034;18.576;2023-02-28T19:09:41;27.20;;;10.17;;
70927;SDS011;58587;53.034;18.576;2023-02-28T19:12:06;25.30;;;10.23;;
70927;SDS011;58587;53.034;18.576;2023-02-28T19:14:32;23.07;;;10.60;;
70927;SDS011;58587;53.034;18.576;2023-02-28T19:16:57;28.67;;;11.90;;
70927;SDS011;58587;53.034;18.576;2023-02-28T19:19:22;40.70;;;15.05;;
70927;SDS011;58587;53.034;18.576;2023-02-28T19:21:48;38.17;;;14.23;;
70927;SDS011;58587;53.034;18.576;2023-02-28T19:24:13;35.53;;;13.57;;
70927;SDS011;58587;53.034;18.576;2023-02-28T19:26:38;39.80;;;14.77;;
70927;SDS011;58587;53.034;18.576;2023-02-28T19:29:04;36.37;;;14.67;;
70927;SDS011;58587;53.034;18.576;2023-02-28T19:31:29;29.63;;;11.40;;
70927;SDS011;58587;53.034;18.576;2023-02-28T19:33:55;32.83;;;12.30;;
70927;SDS011;58587;53.034;18.576;2023-02-28T19:36:21;28.00;;;11.38;;
70927;SDS011;58587;53.034;18.576;2023-02-28T19:38:47;31.50;;;12.18;;
70927;SDS011;58587;53.034;18.576;2023-02-28T19:41:13;27.80;;;10.93;;
70927;SDS011;58587;53.034;18.576;2023-02-28T19:43:39;25.42;;;10.55;;
70927;SDS011;58587;53.034;18.576;2023-02-28T19:46:05;25.90;;;10.15;;
70927;SDS011;58587;53.034;18.576;2023-02-28T19:48:31;28.05;;;10.43;;
70927;SDS011;58587;53.034;18.576;2023-02-28T19:51:01;24.40;;;10.40;;
70927;SDS011;58587;53.034;18.576;2023-02-28T19:53:31;74.82;;;25.63;;
70927;SDS011;58587;53.034;18.576;2023-02-28T19:55:58;107.68;;;37.25;;
70927;SDS011;58587;53.034;18.576;2023-02-28T19:58:28;102.63;;;36.23;;
70927;SDS011;58587;53.034;18.576;2023-02-28T20:00:54;43.47;;;17.48;;
70927;SDS011;58587;53.034;18.576;2023-02-28T20:03:19;38.07;;;14.70;;
70927;SDS011;58587;53.034;18.576;2023-02-28T20:05:45;26.40;;;11.20;;
70927;SDS011;58587;53.034;18.576;2023-02-28T20:08:11;29.02;;;10.43;;
70927;SDS011;58587;53.034;18.576;2023-02-28T20:10:37;65.90;;;23.13;;
70927;SDS011;58587;53.034;18.576;2023-02-28T20:13:03;72.17;;;24.57;;
70927;SDS011;58587;53.034;18.576;2023-02-28T20:15:28;65.22;;;24.17;;
70927;SDS011;58587;53.034;18.576;2023-02-28T20:17:54;51.43;;;17.37;;
70927;SDS011;58587;53.034;18.576;2023-02-28T20:20:21;86.78;;;27.70;;
70927;SDS011;58587;53.034;18.576;2023-02-28T20:22:47;79.60;;;22.63;;
70927;SDS011;58587;53.034;18.576;2023-02-28T20:25:13;55.58;;;20.50;;
70927;SDS011;58587;53.034;18.576;2023-02-28T20:27:38;50.47;;;19.20;;
70927;SDS011;58587;53.034;18.576;2023-02-28T20:30:04;61.80;;;20.10;;
70927;SDS011;58587;53.034;18.576;2023-02-28T20:32:29;49.45;;;18.00;;
70927;SDS011;58587;53.034;18.576;2023-02-28T20:34:55;42.90;;;15.43;;
70927;SDS011;58587;53.034;18.576;2023-02-28T20:37:20;37.87;;;15.30;;
70927;SDS011;58587;53.034;18.576;2023-02-28T20:39:46;45.35;;;15.65;;
70927;SDS011;58587;53.034;18.576;2023-02-28T20:42:13;96.17;;;26.30;;
70927;SDS011;58587;53.034;18.576;2023-02-28T20:44:38;86.00;;;23.80;;
70927;SDS011;58587;53.034;18.576;2023-02-28T20:47:04;36.38;;;12.10;;
70927;SDS011;58587;53.034;18.576;2023-02-28T20:49:29;28.42;;;10.80;;
70927;SDS011;58587;53.034;18.576;2023-02-28T20:51:54;29.40;;;10.33;;
70927;SDS011;58587;53.034;18.576;2023-02-28T20:54:20;30.07;;;10.80;;
70927;SDS011;58587;53.034;18.576;2023-02-28T20:56:45;70.07;;;22.17;;
70927;SDS011;58587;53.034;18.576;2023-02-28T20:59:11;104.88;;;32.65;;
70927;SDS011;58587;53.034;18.576;2023-02-28T21:01:37;204.33;;;57.67;;
70927;SDS011;58587;53.034;18.576;2023-02-28T21:04:04;220.15;;;76.00;;
70927;SDS011;58587;53.034;18.576;2023-02-28T21:06:32;239.70;;;75.07;;
70927;SDS011;58587;53.034;18.576;2023-02-28T21:08:59;220.50;;;69.32;;
70927;SDS011;58587;53.034;18.576;2023-02-28T21:11:28;178.30;;;53.10;;
70927;SDS011;58587;53.034;18.576;2023-02-28T21:13:55;58.78;;;18.20;;
70927;SDS011;58587;53.034;18.576;2023-02-28T21:16:23;24.15;;;9.02;;
70927;SDS011;58587;53.034;18.576;2023-02-28T21:18:51;20.40;;;7.37;;
70927;SDS011;58587;53.034;18.576;2023-02-28T21:21:19;32.90;;;11.40;;
70927;SDS011;58587;53.034;18.576;2023-02-28T21:23:46;20.13;;;7.60;;
70927;SDS011;58587;53.034;18.576;2023-02-28T21:26:14;20.27;;;7.32;;
70927;SDS011;58587;53.034;18.576;2023-02-28T21:28:42;18.15;;;7.53;;
70927;SDS011;58587;53.034;18.576;2023-02-28T21:31:13;17.47;;;6.97;;
70927;SDS011;58587;53.034;18.576;2023-02-28T21:33:41;19.38;;;6.88;;
70927;SDS011;58587;53.034;18.576;2023-02-28T21:36:14;22.35;;;7.68;;
70927;SDS011;58587;53.034;18.576;2023-02-28T21:38:43;17.38;;;6.97;;
70927;SDS011;58587;53.034;18.576;2023-02-28T21:41:17;20.08;;;7.60;;
70927;SDS011;58587;53.034;18.576;2023-02-28T21:43:44;23.07;;;7.90;;
70927;SDS011;58587;53.034;18.576;2023-02-28T21:46:11;17.05;;;6.57;;
70927;SDS011;58587;53.034;18.576;2023-02-28T21:48:38;19.13;;;6.35;;
70927;SDS011;58587;53.034;18.576;2023-02-28T21:51:05;23.77;;;7.50;;
70927;SDS011;58587;53.034;18.576;2023-02-28T21:53:34;21.90;;;7.43;;
70927;SDS011;58587;53.034;18.576;2023-02-28T21:56:01;24.30;;;9.77;;
70927;SDS011;58587;53.034;18.576;2023-02-28T21:58:29;25.33;;;10.30;;
70927;SDS011;58587;53.034;18.576;2023-02-28T22:00:54;23.25;;;9.80;;
70927;SDS011;58587;53.034;18.576;2023-02-28T22:03:19;20.90;;;8.60;;
70927;SDS011;58587;53.034;18.576;2023-02-28T22:05:45;20.77;;;8.80;;
70927;SDS011;58587;53.034;18.576;2023-02-28T22:08:10;26.83;;;10.93;;
70927;SDS011;58587;53.034;18.576;2023-02-28T22:10:35;27.60;;;10.17;;
70927;SDS011;58587;53.034;18.576;2023-02-28T22:13:01;24.87;;;9.13;;
70927;SDS011;58587;53.034;18.576;2023-02-28T22:15:34;23.25;;;8.60;;
70927;SDS011;58587;53.034;18.576;2023-02-28T22:18:01;25.98;;;9.75;;
70927;SDS011;58587;53.034;18.576;2023-02-28T22:20:26;20.97;;;9.47;;
